createdAt,value
2019-03-06T00:00:17.649Z,8.00
2019-03-06T00:02:43.937Z,8.00
2019-03-06T00:05:10.203Z,8.00
2019-03-06T00:07:36.436Z,8.00
2019-03-06T00:10:42.256Z,8.00
2019-03-06T00:13:08.420Z,8.00
2019-03-06T00:15:34.560Z,7.90
2019-03-06T00:18:00.844Z,7.90
2019-03-06T00:20:26.990Z,7.90
2019-03-06T00:22:53.171Z,7.90
2019-03-06T00:25:19.326Z,7.90
2019-03-06T00:27:45.523Z,7.90
2019-03-06T00:30:14.585Z,7.90
2019-03-06T00:32:41.449Z,7.90
2019-03-06T00:35:11.699Z,7.90
2019-03-06T00:37:37.880Z,7.90
2019-03-06T00:40:22.805Z,7.90
2019-03-06T00:42:49.940Z,7.90
2019-03-06T00:45:16.098Z,7.90
2019-03-06T00:47:42.395Z,7.90
2019-03-06T00:50:08.609Z,7.90
2019-03-06T00:52:34.878Z,7.90
2019-03-06T00:55:01.413Z,7.90
2019-03-06T00:57:27.863Z,7.90
2019-03-06T00:59:54.061Z,7.90
2019-03-06T01:02:20.295Z,7.80
2019-03-06T01:04:46.470Z,7.80
2019-03-06T01:07:12.608Z,7.80
2019-03-06T01:09:38.812Z,7.80
2019-03-06T01:12:05.053Z,7.80
2019-03-06T01:14:31.230Z,7.80
2019-03-06T01:16:57.412Z,7.80
2019-03-06T01:19:23.846Z,7.80
2019-03-06T01:21:49.986Z,7.80
2019-03-06T01:24:16.503Z,7.80
2019-03-06T01:27:02.541Z,7.80
2019-03-06T01:29:28.734Z,7.80
2019-03-06T01:31:54.858Z,7.80
2019-03-06T01:34:31.724Z,7.80
2019-03-06T01:37:00.061Z,7.80
2019-03-06T01:39:31.376Z,7.80
2019-03-06T01:42:02.419Z,7.70
2019-03-06T01:44:30.514Z,7.70
2019-03-06T01:46:56.669Z,7.70
2019-03-06T01:49:23.168Z,7.70
2019-03-06T01:51:49.330Z,7.70
2019-03-06T01:54:15.524Z,7.70
2019-03-06T01:56:41.676Z,7.70
2019-03-06T01:59:07.857Z,7.70
2019-03-06T02:01:34.095Z,7.70
2019-03-06T02:04:01.103Z,7.70
2019-03-06T02:06:27.623Z,7.70
2019-03-06T02:08:54.794Z,7.70
2019-03-06T02:11:21.286Z,7.60
2019-03-06T02:13:47.570Z,7.60
2019-03-06T02:16:13.991Z,7.60
2019-03-06T02:18:40.383Z,7.60
2019-03-06T02:21:06.647Z,7.50
2019-03-06T02:23:32.824Z,7.50
2019-03-06T02:25:59.110Z,7.50
2019-03-06T02:28:25.341Z,7.50
2019-03-06T02:30:51.497Z,7.50
2019-03-06T02:33:18.362Z,7.50
2019-03-06T02:35:44.527Z,7.40
2019-03-06T02:38:11.051Z,7.40
2019-03-06T02:40:37.684Z,7.40
2019-03-06T02:43:03.853Z,7.40
2019-03-06T02:45:30.347Z,7.40
2019-03-06T02:48:16.382Z,7.40
2019-03-06T02:51:20.535Z,7.30
2019-03-06T02:53:47.285Z,7.40
2019-03-06T02:56:13.495Z,7.30
2019-03-06T02:58:41.537Z,7.30
2019-03-06T03:01:09.612Z,7.20
2019-03-06T03:03:37.666Z,7.20
2019-03-06T03:06:14.627Z,7.10
2019-03-06T03:08:40.777Z,7.10
2019-03-06T03:11:06.994Z,7.10
2019-03-06T03:13:33.444Z,7.00
2019-03-06T03:15:59.613Z,7.00
2019-03-06T03:18:25.753Z,7.00
2019-03-06T03:20:52.329Z,7.00
2019-03-06T03:23:18.524Z,6.90
2019-03-06T03:25:44.867Z,6.90
2019-03-06T03:28:11.384Z,6.90
2019-03-06T03:30:37.686Z,6.90
2019-03-06T03:33:04.145Z,6.90
2019-03-06T03:35:30.317Z,6.80
2019-03-06T03:37:56.570Z,6.80
2019-03-06T03:40:22.749Z,6.80
2019-03-06T03:42:48.880Z,6.80
2019-03-06T03:45:15.563Z,6.80
2019-03-06T03:47:41.721Z,6.80
2019-03-06T03:50:09.672Z,6.80
2019-03-06T03:52:35.911Z,6.80
2019-03-06T03:55:08.813Z,6.80
2019-03-06T03:57:34.972Z,6.80
2019-03-06T04:00:01.180Z,6.80
2019-03-06T04:02:27.354Z,6.80
2019-03-06T04:04:53.780Z,6.80
2019-03-06T04:07:20.228Z,6.80
2019-03-06T04:09:46.391Z,6.80
2019-03-06T04:12:12.559Z,6.80
2019-03-06T04:14:38.702Z,6.70
2019-03-06T04:17:04.877Z,6.70
2019-03-06T04:19:31.009Z,6.80
2019-03-06T04:21:57.189Z,6.70
2019-03-06T04:24:23.652Z,6.70
2019-03-06T04:26:49.861Z,6.70
2019-03-06T04:29:16.026Z,6.70
2019-03-06T04:31:42.566Z,6.70
2019-03-06T04:34:08.720Z,6.80
2019-03-06T04:36:34.955Z,6.70
2019-03-06T04:39:01.078Z,6.70
2019-03-06T04:41:27.304Z,6.70
2019-03-06T04:43:53.783Z,6.70
2019-03-06T04:46:19.959Z,6.60
2019-03-06T04:48:46.412Z,6.60
2019-03-06T04:51:13.210Z,6.50
2019-03-06T04:53:39.422Z,6.50
2019-03-06T04:56:05.703Z,6.50
2019-03-06T04:58:31.862Z,6.40
2019-03-06T05:00:58.038Z,6.40
2019-03-06T05:03:24.500Z,6.30
2019-03-06T05:05:50.698Z,6.30
2019-03-06T05:08:16.833Z,6.20
2019-03-06T05:10:43.423Z,6.20
2019-03-06T05:13:09.567Z,6.20
2019-03-06T05:15:36.144Z,6.10
2019-03-06T05:18:16.390Z,6.10
2019-03-06T05:20:42.560Z,6.10
2019-03-06T05:23:08.693Z,6.00
2019-03-06T05:25:36.157Z,6.00
2019-03-06T05:28:02.454Z,6.00
2019-03-06T05:30:29.839Z,5.90
2019-03-06T05:33:01.703Z,5.90
2019-03-06T05:35:48.712Z,5.90
2019-03-06T05:38:23.209Z,5.90
2019-03-06T05:40:49.672Z,5.80
2019-03-06T05:43:15.918Z,5.80
2019-03-06T05:45:42.383Z,5.80
2019-03-06T05:48:08.548Z,5.70
2019-03-06T05:50:34.746Z,5.70
2019-03-06T05:53:01.040Z,5.70
2019-03-06T05:55:27.243Z,5.70
2019-03-06T05:57:53.410Z,5.70
2019-03-06T06:00:24.189Z,5.70
2019-03-06T06:02:50.306Z,5.70
2019-03-06T06:05:16.512Z,5.70
2019-03-06T06:07:42.667Z,5.70
2019-03-06T06:10:11.757Z,5.70
2019-03-06T06:12:37.989Z,5.70
2019-03-06T06:15:10.534Z,5.80
2019-03-06T06:17:36.683Z,5.80
2019-03-06T06:20:07.185Z,5.90
2019-03-06T06:22:38.548Z,5.90
2019-03-06T06:25:05.059Z,6.00
2019-03-06T06:27:31.196Z,6.10
2019-03-06T06:29:57.373Z,6.30
2019-03-06T06:32:23.512Z,6.40
2019-03-06T06:34:49.942Z,6.60
2019-03-06T06:37:16.086Z,6.80
2019-03-06T06:39:42.257Z,7.10
2019-03-06T06:42:08.628Z,7.40
2019-03-06T06:44:34.837Z,7.70
2019-03-06T06:47:01.309Z,8.00
2019-03-06T06:49:27.469Z,8.30
2019-03-06T06:52:04.849Z,8.50
2019-03-06T06:54:42.971Z,8.80
2019-03-06T06:57:47.462Z,9.10
2019-03-06T07:00:26.730Z,9.40
2019-03-06T07:03:07.966Z,9.70
2019-03-06T07:05:36.144Z,10.10
2019-03-06T07:08:04.390Z,10.50
2019-03-06T07:10:44.498Z,10.80
2019-03-06T07:13:29.338Z,11.20
2019-03-06T07:16:03.869Z,11.70
2019-03-06T07:18:35.008Z,12.20
2019-03-06T07:21:05.740Z,12.70
2019-03-06T07:23:49.014Z,13.20
2019-03-06T07:26:33.908Z,13.60
2019-03-06T07:29:04.485Z,14.10
2019-03-06T07:31:38.521Z,14.50
2019-03-06T07:34:06.574Z,14.80
2019-03-06T07:36:43.399Z,15.20
2019-03-06T07:39:11.866Z,15.50
2019-03-06T07:41:42.572Z,16.00
2019-03-06T07:44:30.440Z,16.50
2019-03-06T07:47:00.029Z,17.10
2019-03-06T07:49:45.527Z,17.70
2019-03-06T07:52:15.515Z,18.30
2019-03-06T07:54:43.802Z,19.00
2019-03-06T07:57:11.901Z,19.60
2019-03-06T07:59:38.039Z,20.20
2019-03-06T08:02:15.728Z,20.70
2019-03-06T08:04:51.291Z,21.10
2019-03-06T08:07:17.450Z,21.50
2019-03-06T08:09:43.614Z,21.80
2019-03-06T08:12:20.917Z,21.80
2019-03-06T08:15:05.927Z,21.80
2019-03-06T08:17:52.382Z,21.80
2019-03-06T08:20:29.154Z,21.70
2019-03-06T08:23:00.118Z,21.60
2019-03-06T08:25:28.437Z,21.50
2019-03-06T08:27:54.621Z,21.50
2019-03-06T08:30:22.073Z,21.40
2019-03-06T08:32:48.254Z,21.50
2019-03-06T08:35:14.382Z,21.60
2019-03-06T08:37:40.565Z,21.70
2019-03-06T08:40:09.508Z,21.70
2019-03-06T08:42:35.706Z,21.80
2019-03-06T08:45:05.877Z,21.90
2019-03-06T08:47:33.963Z,22.00
2019-03-06T08:50:04.972Z,22.10
2019-03-06T08:52:33.445Z,22.20
2019-03-06T08:55:11.140Z,22.30
2019-03-06T08:57:39.323Z,22.40
2019-03-06T09:00:12.786Z,22.50
2019-03-06T09:02:49.918Z,22.50
2019-03-06T09:05:24.124Z,22.60
2019-03-06T09:07:54.919Z,22.60
2019-03-06T09:10:41.461Z,22.50
2019-03-06T09:13:15.544Z,22.40
2019-03-06T09:15:55.921Z,22.40
2019-03-06T09:18:23.971Z,22.30
2019-03-06T09:20:54.702Z,22.30
2019-03-06T09:23:39.615Z,22.40
2019-03-06T09:26:07.702Z,22.40
2019-03-06T09:28:42.247Z,22.60
2019-03-06T09:31:33.011Z,22.90
2019-03-06T09:34:04.052Z,23.20
2019-03-06T09:36:49.149Z,23.50
2019-03-06T09:39:53.578Z,22.70
2019-03-06T09:42:21.631Z,24.00
2019-03-06T09:45:06.186Z,24.20
2019-03-06T09:47:40.170Z,24.50
2019-03-06T09:50:16.798Z,24.80
2019-03-06T09:53:01.457Z,25.10
2019-03-06T09:55:46.081Z,25.30
2019-03-06T09:58:16.832Z,25.50
2019-03-06T10:01:01.624Z,25.60
2019-03-06T10:03:35.968Z,25.80
2019-03-06T10:06:04.043Z,26.00
2019-03-06T10:08:44.348Z,26.20
2019-03-06T10:11:27.789Z,26.40
2019-03-06T10:14:01.561Z,26.60
2019-03-06T10:16:29.737Z,26.60
2019-03-06T10:19:03.411Z,26.60
2019-03-06T10:21:29.567Z,26.70
2019-03-06T10:23:55.745Z,26.80
2019-03-06T10:26:22.355Z,26.90
2019-03-06T10:28:48.789Z,27.00
2019-03-06T10:31:15.373Z,27.10
2019-03-06T10:33:42.010Z,27.20
2019-03-06T10:36:08.458Z,27.30
2019-03-06T10:38:34.622Z,27.40
2019-03-06T10:41:00.888Z,27.50
2019-03-06T10:43:27.044Z,27.40
2019-03-06T10:45:53.217Z,27.40
2019-03-06T10:48:19.364Z,27.30
2019-03-06T10:50:45.561Z,27.20
2019-03-06T10:53:11.816Z,27.00
2019-03-06T10:55:37.984Z,26.80
2019-03-06T10:58:04.226Z,26.60
2019-03-06T11:00:35.547Z,26.30
2019-03-06T11:03:01.788Z,26.20
2019-03-06T11:05:29.962Z,25.90
2019-03-06T11:07:58.527Z,25.70
2019-03-06T11:10:25.806Z,25.50
2019-03-06T11:12:54.155Z,25.40
2019-03-06T11:15:21.123Z,25.20
2019-03-06T11:17:48.083Z,25.00
2019-03-06T11:20:33.679Z,24.80
2019-03-06T11:23:05.054Z,24.60
2019-03-06T11:25:32.133Z,24.40
2019-03-06T11:27:58.390Z,24.30
2019-03-06T11:30:38.815Z,24.10
2019-03-06T11:33:07.751Z,23.90
2019-03-06T11:35:35.940Z,23.70
2019-03-06T11:38:03.339Z,23.50
2019-03-06T11:40:29.769Z,23.40
2019-03-06T11:42:55.912Z,23.20
2019-03-06T11:45:22.306Z,23.10
2019-03-06T11:47:48.454Z,23.00
2019-03-06T11:50:16.244Z,22.80
2019-03-06T11:52:42.402Z,22.60
2019-03-06T11:55:11.866Z,22.30
2019-03-06T11:57:38.108Z,22.00
2019-03-06T12:00:35.465Z,21.60
2019-03-06T12:03:02.108Z,21.30
2019-03-06T12:05:28.964Z,21.00
2019-03-06T12:07:55.128Z,20.80
2019-03-06T12:10:22.108Z,20.60
2019-03-06T12:12:48.265Z,20.40
2019-03-06T12:15:15.441Z,20.20
2019-03-06T12:17:41.882Z,20.00
2019-03-06T12:20:08.621Z,19.90
2019-03-06T12:22:35.167Z,19.90
2019-03-06T12:25:01.416Z,19.90
2019-03-06T12:27:27.584Z,19.90
2019-03-06T12:29:54.757Z,19.90
2019-03-06T12:32:20.909Z,19.80
2019-03-06T12:34:47.044Z,19.80
2019-03-06T12:37:13.244Z,19.80
2019-03-06T12:39:39.629Z,19.80
2019-03-06T12:42:13.909Z,19.80
2019-03-06T12:44:34.241Z,19.80
2019-03-06T12:47:00.421Z,19.70
2019-03-06T12:49:26.580Z,19.50
2019-03-06T12:51:54.630Z,19.40
2019-03-06T12:54:20.830Z,19.30
2019-03-06T12:56:46.991Z,19.20
2019-03-06T12:59:13.133Z,19.20
2019-03-06T13:01:39.535Z,19.10
2019-03-06T13:04:05.676Z,19.10
2019-03-06T13:06:31.878Z,19.10
2019-03-06T13:08:58.714Z,19.10
2019-03-06T13:11:24.981Z,19.20
2019-03-06T13:13:51.129Z,19.20
2019-03-06T13:16:17.539Z,19.30
2019-03-06T13:19:03.573Z,19.40
2019-03-06T13:21:29.756Z,19.50
2019-03-06T13:23:55.904Z,19.60
2019-03-06T13:26:22.097Z,19.70
2019-03-06T13:28:56.921Z,19.80
2019-03-06T13:31:16.334Z,19.90
2019-03-06T13:33:44.480Z,20.00
2019-03-06T13:36:12.356Z,20.10
2019-03-06T13:38:41.246Z,20.10
2019-03-06T13:41:07.426Z,20.10
2019-03-06T13:43:33.597Z,20.20
2019-03-06T13:45:59.848Z,20.20
2019-03-06T13:48:26.012Z,20.30
2019-03-06T13:50:52.161Z,20.30
2019-03-06T13:53:20.553Z,20.30
2019-03-06T13:55:46.760Z,20.30
2019-03-06T13:58:12.945Z,20.30
2019-03-06T14:00:39.117Z,20.30
2019-03-06T14:03:05.587Z,20.30
2019-03-06T14:05:32.127Z,20.20
2019-03-06T14:07:58.574Z,20.00
2019-03-06T14:10:25.228Z,19.90
2019-03-06T14:12:52.068Z,19.70
2019-03-06T14:15:19.552Z,19.60
2019-03-06T14:17:45.822Z,19.50
2019-03-06T14:20:15.987Z,19.40
2019-03-06T14:22:45.470Z,19.30
2019-03-06T14:25:13.026Z,19.20
2019-03-06T14:27:39.502Z,19.10
2019-03-06T14:30:19.909Z,19.00
2019-03-06T14:32:46.207Z,18.90
2019-03-06T14:35:12.348Z,18.70
2019-03-06T14:37:39.026Z,18.60
2019-03-06T14:40:19.463Z,18.50
2019-03-06T14:42:45.639Z,18.50
2019-03-06T14:45:13.094Z,18.40
2019-03-06T14:47:39.271Z,18.30
2019-03-06T14:50:07.023Z,18.30
2019-03-06T14:52:33.274Z,18.20
2019-03-06T14:54:59.696Z,18.10
2019-03-06T14:57:25.888Z,18.10
2019-03-06T14:59:52.164Z,18.00
2019-03-06T15:02:18.330Z,18.00
2019-03-06T15:04:44.496Z,17.80
2019-03-06T15:07:10.922Z,17.80
2019-03-06T15:09:37.229Z,17.70
2019-03-06T15:12:03.372Z,17.60
2019-03-06T15:14:36.083Z,17.60
2019-03-06T15:16:57.610Z,17.50
2019-03-06T15:19:23.854Z,17.50
2019-03-06T15:21:50.808Z,17.40
2019-03-06T15:24:16.990Z,17.30
2019-03-06T15:26:43.271Z,17.20
2019-03-06T15:29:09.551Z,17.20
2019-03-06T15:31:35.855Z,17.20
2019-03-06T15:34:02.110Z,17.10
2019-03-06T15:36:28.766Z,17.10
2019-03-06T15:38:54.968Z,17.00
2019-03-06T15:41:21.127Z,17.00
2019-03-06T15:43:47.353Z,17.00
2019-03-06T15:46:13.495Z,17.00
2019-03-06T15:48:39.690Z,16.90
2019-03-06T15:51:05.841Z,16.90
2019-03-06T15:53:32.017Z,16.80
2019-03-06T15:55:58.453Z,16.80
2019-03-06T15:58:24.610Z,16.70
2019-03-06T16:00:50.745Z,16.70
2019-03-06T16:03:17.092Z,16.60
2019-03-06T16:05:43.445Z,16.60
2019-03-06T16:08:11.929Z,16.60
2019-03-06T16:10:39.272Z,16.50
2019-03-06T16:13:05.843Z,16.50
2019-03-06T16:15:32.119Z,16.50
2019-03-06T16:18:01.614Z,16.40
2019-03-06T16:20:27.797Z,16.40
2019-03-06T16:22:54.001Z,16.30
2019-03-06T16:25:20.724Z,16.30
2019-03-06T16:27:46.904Z,16.20
2019-03-06T16:30:16.561Z,16.20
2019-03-06T16:32:42.984Z,16.20
2019-03-06T16:35:09.625Z,16.10
2019-03-06T16:37:35.839Z,16.00
2019-03-06T16:40:09.779Z,16.00
2019-03-06T16:42:35.960Z,16.00
2019-03-06T16:45:05.445Z,15.90
2019-03-06T16:47:31.660Z,15.90
2019-03-06T16:49:57.805Z,15.80
2019-03-06T16:52:23.986Z,15.80
2019-03-06T16:54:50.226Z,15.70
2019-03-06T16:57:16.418Z,15.60
2019-03-06T16:59:42.879Z,15.60
2019-03-06T17:02:09.818Z,15.60
2019-03-06T17:04:36.949Z,15.50
2019-03-06T17:07:03.444Z,15.50
2019-03-06T17:11:55.687Z,15.40
2019-03-06T17:14:23.038Z,15.40
2019-03-06T17:16:49.177Z,15.40
2019-03-06T17:19:15.637Z,15.30
2019-03-06T17:21:42.175Z,15.30
2019-03-06T17:24:08.779Z,15.30
2019-03-06T17:26:35.323Z,15.20
2019-03-06T17:29:08.821Z,15.20
2019-03-06T17:31:35.262Z,15.20
2019-03-06T17:34:01.469Z,15.10
2019-03-06T17:36:27.620Z,15.10
2019-03-06T17:38:53.809Z,15.10
2019-03-06T17:41:20.421Z,15.10
2019-03-06T17:43:46.855Z,15.00
2019-03-06T17:46:13.188Z,15.00
2019-03-06T17:48:39.448Z,14.90
2019-03-06T17:51:05.862Z,14.90
2019-03-06T17:53:32.138Z,14.90
2019-03-06T17:55:58.543Z,14.80
2019-03-06T17:58:24.803Z,14.80
2019-03-06T18:00:55.523Z,14.80
2019-03-06T18:03:23.612Z,14.80
2019-03-06T18:05:49.756Z,14.80
2019-03-06T18:08:16.014Z,14.70
2019-03-06T18:10:42.683Z,14.70
2019-03-06T18:13:09.103Z,14.70
2019-03-06T18:15:35.285Z,14.70
2019-03-06T18:18:01.413Z,14.70
2019-03-06T18:20:27.937Z,14.60
2019-03-06T18:22:55.262Z,14.60
2019-03-06T18:25:23.699Z,14.60
2019-03-06T18:27:49.839Z,14.70
2019-03-06T18:30:18.910Z,14.70
2019-03-06T18:32:46.110Z,14.70
2019-03-06T18:35:17.237Z,14.70
2019-03-06T18:37:43.794Z,14.80
2019-03-06T18:40:24.546Z,14.80
2019-03-06T18:42:50.795Z,14.80
2019-03-06T18:45:18.977Z,14.80
2019-03-06T18:47:45.225Z,14.80
2019-03-06T18:50:17.480Z,14.80
2019-03-06T18:52:44.291Z,14.90
2019-03-06T18:55:13.487Z,14.80
2019-03-06T18:57:40.506Z,14.80
2019-03-06T19:00:21.472Z,14.80
2019-03-06T19:02:47.723Z,14.80
2019-03-06T19:05:15.829Z,14.80
2019-03-06T19:07:42.061Z,14.80
2019-03-06T19:10:12.640Z,14.80
2019-03-06T19:12:39.141Z,14.70
2019-03-06T19:15:16.343Z,14.80
2019-03-06T19:17:42.652Z,14.70
2019-03-06T19:20:09.959Z,14.70
2019-03-06T19:22:36.423Z,14.70
2019-03-06T19:25:06.662Z,14.70
2019-03-06T19:27:32.965Z,14.70
2019-03-06T19:29:59.468Z,14.70
2019-03-06T19:32:25.903Z,14.70
2019-03-06T19:34:52.108Z,14.60
2019-03-06T19:37:18.282Z,14.60
2019-03-06T19:39:44.478Z,14.60
2019-03-06T19:42:10.639Z,14.60
2019-03-06T19:44:36.820Z,14.60
2019-03-06T19:47:03.061Z,14.60
2019-03-06T19:49:29.548Z,14.60
2019-03-06T19:51:55.898Z,14.70
2019-03-06T19:54:22.069Z,14.70
2019-03-06T19:56:48.237Z,14.70
2019-03-06T19:59:14.410Z,14.70
2019-03-06T20:01:40.604Z,14.70
2019-03-06T20:04:06.760Z,14.70
2019-03-06T20:06:33.044Z,14.70
2019-03-06T20:08:59.190Z,14.70
2019-03-06T20:11:25.987Z,14.70
2019-03-06T20:13:52.131Z,14.70
2019-03-06T20:16:18.324Z,14.70
2019-03-06T20:18:44.745Z,14.70
2019-03-06T20:21:11.213Z,14.70
2019-03-06T20:23:37.406Z,14.80
2019-03-06T20:26:03.611Z,14.70
2019-03-06T20:28:29.754Z,14.70
2019-03-06T20:30:55.950Z,14.80
2019-03-06T20:33:22.282Z,14.80
2019-03-06T20:35:48.460Z,14.80
2019-03-06T20:38:14.625Z,14.80
2019-03-06T20:43:26.113Z,14.90
2019-03-06T20:45:52.622Z,14.90
2019-03-06T20:48:19.059Z,14.90
2019-03-06T20:50:45.604Z,14.90
2019-03-06T20:53:12.041Z,14.90
2019-03-06T20:55:38.207Z,14.90
2019-03-06T20:58:04.708Z,14.90
2019-03-06T21:00:31.113Z,14.90
2019-03-06T21:02:57.339Z,14.90
2019-03-06T21:05:23.848Z,14.90
2019-03-06T21:07:50.385Z,14.90
2019-03-06T21:10:18.139Z,14.90
2019-03-06T21:12:45.017Z,14.80
2019-03-06T21:15:15.000Z,14.80
2019-03-06T21:17:41.651Z,14.80
2019-03-06T21:20:12.166Z,14.80
2019-03-06T21:22:38.571Z,14.80
2019-03-06T21:25:08.934Z,14.80
2019-03-06T21:27:35.339Z,14.80
2019-03-06T21:30:04.966Z,14.80
2019-03-06T21:32:31.718Z,14.80
2019-03-06T21:34:58.863Z,14.80
2019-03-06T21:37:25.097Z,14.80
2019-03-06T21:39:51.263Z,14.80
2019-03-06T21:42:17.460Z,14.80
2019-03-06T21:44:43.924Z,14.80
2019-03-06T21:47:10.206Z,14.80
2019-03-06T21:49:36.449Z,14.80
2019-03-06T21:52:02.819Z,14.80
2019-03-06T21:54:29.034Z,14.70
2019-03-06T21:56:55.203Z,14.70
2019-03-06T21:59:21.363Z,14.70
2019-03-06T22:01:47.702Z,14.60
2019-03-06T22:04:13.853Z,14.50
2019-03-06T22:06:40.037Z,14.50
2019-03-06T22:09:10.598Z,14.50
2019-03-06T22:11:36.774Z,14.40
2019-03-06T22:14:03.027Z,14.40
2019-03-06T22:16:29.289Z,14.30
2019-03-06T22:18:55.449Z,14.30
2019-03-06T22:21:21.669Z,14.30
2019-03-06T22:23:47.806Z,14.20
2019-03-06T22:26:13.997Z,14.20
2019-03-06T22:28:40.559Z,14.10
2019-03-06T22:31:06.731Z,14.10
2019-03-06T22:33:32.893Z,14.10
2019-03-06T22:35:59.474Z,14.00
2019-03-06T22:38:25.629Z,14.00
2019-03-06T22:40:51.785Z,14.00
2019-03-06T22:43:17.963Z,13.90
2019-03-06T22:45:44.212Z,13.90
2019-03-06T22:48:10.441Z,13.90
2019-03-06T22:50:36.632Z,13.80
2019-03-06T22:53:02.807Z,13.80
2019-03-06T22:55:28.973Z,13.80
2019-03-06T22:57:55.236Z,13.80
2019-03-06T23:00:43.834Z,13.80
2019-03-06T23:03:10.419Z,13.80
2019-03-06T23:05:36.984Z,13.80
2019-03-06T23:08:03.264Z,13.80
2019-03-06T23:10:29.414Z,13.80
2019-03-06T23:12:55.799Z,13.80
2019-03-06T23:15:21.948Z,13.80
2019-03-06T23:17:48.126Z,13.70
2019-03-06T23:20:14.561Z,13.70
2019-03-06T23:22:40.770Z,13.70
2019-03-06T23:25:06.997Z,13.70
2019-03-06T23:27:33.165Z,13.70
2019-03-06T23:29:59.348Z,13.70
2019-03-06T23:32:32.074Z,13.70
2019-03-06T23:34:58.248Z,13.70
2019-03-06T23:37:24.383Z,13.70
2019-03-06T23:39:50.656Z,13.70
2019-03-06T23:42:17.355Z,13.60
2019-03-06T23:44:43.519Z,13.60
2019-03-06T23:47:09.691Z,13.60
2019-03-06T23:49:37.050Z,13.60
2019-03-06T23:52:05.126Z,13.60
2019-03-06T23:54:31.575Z,13.60
2019-03-06T23:56:58.363Z,13.50
2019-03-06T23:59:24.531Z,13.50
